AirNav   Phillips 66 Aviation Fuel
 
 990 users online  

I73 Moraine Air Park
Dayton, Ohio, USA

GOING TO DAYTON?


FAA INFORMATION EFFECTIVE 13 SEPTEMBER 2018

Location

FAA Identifier: I73
Lat/Long: 39-40-55.5950N / 084-14-23.9700W
39-40.926583N / 084-14.399500W
39.6821097 / -84.2399917
(estimated)
Elevation: 720 ft. / 219.5 m (surveyed)
Variation: 04W (1985)
From city: 4 miles SW of DAYTON, OH
Time zone: UTC -4 (UTC -5 during Standard Time)
Zip code: 45439

Airport Operations

Airport use: Open to the public
Activation date: 10/1947
Control tower: no
ARTCC: INDIANAPOLIS CENTER
FSS: DAYTON FLIGHT SERVICE STATION
NOTAMs facility: DAY (NOTAM-D service available)
Attendance: DAYLIGHT HOURS
Wind indicator: yes
Segmented circle: no
Lights: SS-SR
Beacon: white-green (lighted land airport)

Airport Communications

CTAF/UNICOM: 122.7
COLUMBUS APPROACH: 118.85
COLUMBUS DEPARTURE: 118.85
IC CLASS C: 118.85
WX ASOS at MGY (6 nm S): 118.375 (937-885-2171)
WX AWOS-3 at I19 (11 nm E): 118.525 (937-372-4668)
WX AWOS-3 at MWO (12 nm SW): 120.025 (513-422-3505)
WX AWOS-3 at I68 (13 nm S): 120.55 (513-934-5500)
WX ASOS at DAY (13 nm N): PHONE 937-415-6819

Nearby radio navigation aids

VOR radial/distance  VOR name  Freq  Var
SGHr247/20.4SPRINGFIELD VOR/DME113.2004W
DQNr161/21.3DAYTON VOR/DME114.5001W
MXQr311/25.3MIDWEST VOR/DME112.9004W
RIDr102/28.0RICHMOND VORTAC110.6003W
RODr199/37.5ROSEWOOD VORTAC117.5005W

 
NDB name  Hdg/Dist  Freq  Var  ID
ONIDA036/7.322304WMW -- .--
BRUNY162/10.831506WAT .- -
HOOK FIELD045/14.623904WHKF .... -.- ..-.
CLARK COUNTY246/24.134104WCCJ -.-. -.-. .---
MADEIRA015/28.137904WMDE -- -.. .
CINCINNATI013/31.733504WLUK .-.. ..- -.-
SPORTYS002/36.324504WPWF .--. .-- ..-.
COURT HOUSE283/39.541406WCSS -.-. ... ...

Airport Services

Fuel available: 100LL
Parking: tiedowns
Airframe service: MAJOR
Powerplant service: MAJOR
Bottled oxygen: NONE
Bulk oxygen: NONE

Runway Information

Runway 8/26

Dimensions: 3500 x 65 ft. / 1067 x 20 m
Surface: asphalt, in good condition
Runway edge lights: medium intensity
RUNWAY 8  RUNWAY 26
Latitude: 39-40.875000N39-40.978167N
Longitude: 084-14.766167W084-14.032833W
Elevation: 720.0 ft.720.0 ft.
Gradient: 0.2%0.2%
Traffic pattern: leftleft
Displaced threshold: 558 ft.136 ft.
Markings: basic, in good conditionbasic, in good condition
Runway end identifier lights: nono
Touchdown point: yes, no lightsyes, no lights
Obstructions: 15 ft. berm, lighted, 201 ft. from runway, 75 ft. left of centerline
+15 FT LGTD DIKE 0 FT FROM RY END 85 FT RIGHT TO 200 FT FROM EOR 75 FT LEFT.
6 ft. berm, lighted, 201 ft. from runway, 60 ft. right of centerline
6 FT LGTD DIKE 0 FT FROM RY END 125 FT LEFT TO 200 FT FM EOR 120 FT R. 15 FT BRUSH 60 TO 100 FT FM EOR 50 FT R.

Airport Ownership and Management from official FAA records

Ownership: Privately-owned
JOINT OWNERSHIP WITH MONTGOMERY CO.
Owner: MORAINE AIRPARK, INC.
3800 CLEARVIEW RD
DAYTON, OH 45439
Phone 937-866-2489
Manager: GEORGE BOCKERSTETTE
3800 CLEARVIEW RD
DAYTON, OH 45439
Phone 937-866-2489

Airport Operational Statistics

Aircraft based on the field: 132
Single engine airplanes: 115
Multi engine airplanes: 3
Helicopters: 10
Gliders airplanes: 1
Ultralights: 3
    
Aircraft operations: avg 53/day *
36% local general aviation
36% transient general aviation
27% air taxi
<1% military
* for 12-month period ending 02 September 2016

Additional Remarks

15 FT LEVEE S OF & PARALLEL TO RY. TREES N OF RY.
PAEW ADJ TWYS.
COLUMBUS CD (614) 338-8537.
COLUMBUS CD (614) 338-8537.
ULTRA-LIGHT ACTVTY.
RY 8 & 26, CLIMB STRAIGHT OUT TO 1700 FT MSL.

Instrument Procedures

There are no published instrument procedures at I73.

Some nearby airports with instrument procedures:

KMGY - Dayton-Wright Brothers Airport (6 nm S)
I19 - Greene County-Lewis A Jackson Regional Airport (11 nm E)
KMWO - Middletown Regional Airport/Hook Field (12 nm SW)
KFFO - Wright-Patterson Air Force Base (12 nm NE)
I68 - Warren County Airport/John Lane Field (13 nm S)
KDAY - James M Cox Dayton International Airport (13 nm N)
3I7 - Dayton-Phillipsburg Airport (16 nm NW)
 
Loc | Ops | Rwys | IFR | FBO | Links
Com | Nav | Svcs | Stats | Notes


 
Area around I73 (Moraine Air Park)
 
Road maps at: MapQuest Bing Google
 
Aerial photo
WARNING: Photo may not be current or correct
Aerial photo of I73 (Moraine Air Park)
Photo taken 01-Aug-2006
from a Cessna 340

Do you have a better or more recent aerial photo of Moraine Air Park that you would like to share? If so, please send us your photo.

 
Sectional chart

 
Airport distance calculator
Flying to Moraine Air Park? Find the distance to fly.

From to I73

Sunrise and sunset
Times for 25-Sep-2018
 Local
(UTC-4)
 Zulu
(UTC)
Morning civil twilight07:0111:01
Sunrise07:2811:28
Sunset19:2923:29
Evening civil twilight19:5623:56

Current date and time
Zulu (UTC)  25-Sep-2018 23:54:01
Local (UTC-4)  25-Sep-2018 19:54:01
 
METAR
KMGY 
5nm S 
252253Z AUTO 18012KT 10SM SCT025 SCT031 SCT065 25/21 A2996 RMK AO2 SLP137 T02500211
KMWO 
12nm SW 
252335Z AUTO 18010KT 10SM SCT038 BKN080 OVC090 25/22 A2996 RMK AO2 LTG DSNT S T02490218
KFFO 
12nm NE 
252316Z COR 18012KT 10SM SCT024 BKN030 BKN080 25/21 A2995 RMK AO2A SLP140 COR 2332
KDAY 
13nm N 
252317Z 19014KT 10SM BKN027 OVC032 24/21 A2996 RMK AO2 T02440211
KI68 
13nm S 
252335Z AUTO 20008KT 10SM SCT021 BKN075 OVC090 24/24 A2997 RMK AO1 T02400240
TAF
KFFO 
12nm NE 
252115Z 2521/2701 18012KT 9999 OVC020 QNH2991INS TEMPO 2521/2604 20015G25KT OVC015 BECMG 2605/2606 21012KT 9000 -SHRA OVC010 QNH2986INS TEMPO 2606/2609 24025G30KT 8000 -TSRA BKN007CB BECMG 2614/2615 33012G18KT 9999 NSW BKN020 QNH3000INS TX25/2522Z TN18/2611Z
KDAY 
13nm N 
252110Z 2521/2618 20012KT P6SM VCSH SCT025 OVC040 FM260100 20012KT P6SM -SHRA VCTS OVC028CB FM260500 22012KT P6SM VCSH OVC015 FM260900 26010KT P6SM -SHRA VCTS OVC008CB FM261200 31012G20KT P6SM OVC015 FM261700 32012KT P6SM BKN035
NOTAMs
Click for the latest NOTAMs
NOTAMs are issued by the DoD/FAA and will open in a separate window not controlled by AirNav.

 

 
 

FBO, Fuel Providers, and Aircraft Ground Support

  
 Business Name 
 
 Contact 
 
 Services / Description 
 
Fuel Prices
 
Comments
  
Moraine Airpark 937-866-2489
[web site]
[email]
Aviation fuel, Aircraft parking (ramp or tiedown), Flight training, Aircraft rental, Aerial tours / aerial sightseeing, Aircraft maintenance, Aircraft modifications, ...

More info about Moraine Airpark
EPIC
100LL
SS $4.94 
 Updated 19-Sep-2018
 
   1 read write
SS=Self service
Update Fuel Prices
 

Would you like to see your business listed on this page?

 If your business provides an interesting product or service to pilots, flight crews, aircraft, or users of the Moraine Air Park, you should consider listing it here.  To start the listing process, click on the button below
 
Add a business
 

Other Pages about Moraine Air Park

www.moraineairpark.com
www.india73.com
 
Update a link
 
Copyright © AirNav, LLC. All rights reserved. Privacy Policy  Contact